sensor_id;sensor_type;location;lat;lon;timestamp;P1;durP1;ratioP1;P2;durP2;ratioP2
68765;SDS011;55756;45.582;11.484;2023-04-24T00:00:15;23.75;;;18.13;;
68765;SDS011;55756;45.582;11.484;2023-04-24T00:02:43;24.38;;;17.35;;
68765;SDS011;55756;45.582;11.484;2023-04-24T00:05:16;24.42;;;16.75;;
68765;SDS011;55756;45.582;11.484;2023-04-24T00:07:43;26.52;;;17.85;;
68765;SDS011;55756;45.582;11.484;2023-04-24T00:10:10;25.63;;;17.50;;
68765;SDS011;55756;45.582;11.484;2023-04-24T00:12:36;24.38;;;17.00;;
68765;SDS011;55756;45.582;11.484;2023-04-24T00:15:02;27.65;;;17.23;;
68765;SDS011;55756;45.582;11.484;2023-04-24T00:17:28;29.83;;;17.13;;
68765;SDS011;55756;45.582;11.484;2023-04-24T00:19:54;25.67;;;16.65;;
68765;SDS011;55756;45.582;11.484;2023-04-24T00:22:29;24.83;;;17.15;;
68765;SDS011;55756;45.582;11.484;2023-04-24T00:24:55;24.98;;;16.35;;
68765;SDS011;55756;45.582;11.484;2023-04-24T00:27:22;25.58;;;17.02;;
68765;SDS011;55756;45.582;11.484;2023-04-24T00:29:49;26.83;;;17.10;;
68765;SDS011;55756;45.582;11.484;2023-04-24T00:32:15;23.65;;;16.70;;
68765;SDS011;55756;45.582;11.484;2023-04-24T00:34:41;25.17;;;16.75;;
68765;SDS011;55756;45.582;11.484;2023-04-24T00:37:07;24.55;;;15.57;;
68765;SDS011;55756;45.582;11.484;2023-04-24T00:39:33;23.60;;;15.23;;
68765;SDS011;55756;45.582;11.484;2023-04-24T00:41:58;26.25;;;15.80;;
68765;SDS011;55756;45.582;11.484;2023-04-24T00:44:24;22.77;;;16.60;;
68765;SDS011;55756;45.582;11.484;2023-04-24T00:46:50;25.92;;;17.38;;
68765;SDS011;55756;45.582;11.484;2023-04-24T00:49:20;27.48;;;18.10;;
68765;SDS011;55756;45.582;11.484;2023-04-24T00:51:47;29.40;;;18.27;;
68765;SDS011;55756;45.582;11.484;2023-04-24T00:54:14;25.00;;;16.98;;
68765;SDS011;55756;45.582;11.484;2023-04-24T00:56:40;26.98;;;17.10;;
68765;SDS011;55756;45.582;11.484;2023-04-24T01:01:34;24.70;;;16.38;;
68765;SDS011;55756;45.582;11.484;2023-04-24T01:04:02;23.45;;;17.13;;
68765;SDS011;55756;45.582;11.484;2023-04-24T01:06:28;22.95;;;16.08;;
68765;SDS011;55756;45.582;11.484;2023-04-24T01:08:56;23.52;;;15.82;;
68765;SDS011;55756;45.582;11.484;2023-04-24T01:11:23;23.55;;;16.20;;
68765;SDS011;55756;45.582;11.484;2023-04-24T01:13:51;24.20;;;15.77;;
68765;SDS011;55756;45.582;11.484;2023-04-24T01:16:17;22.75;;;14.90;;
68765;SDS011;55756;45.582;11.484;2023-04-24T01:18:45;22.73;;;15.32;;
68765;SDS011;55756;45.582;11.484;2023-04-24T01:21:12;21.77;;;14.70;;
68765;SDS011;55756;45.582;11.484;2023-04-24T01:23:42;22.75;;;15.15;;
68765;SDS011;55756;45.582;11.484;2023-04-24T01:26:09;23.00;;;15.20;;
68765;SDS011;55756;45.582;11.484;2023-04-24T01:28:35;24.40;;;15.02;;
68765;SDS011;55756;45.582;11.484;2023-04-24T01:31:03;21.05;;;14.65;;
68765;SDS011;55756;45.582;11.484;2023-04-24T01:33:29;22.25;;;15.18;;
68765;SDS011;55756;45.582;11.484;2023-04-24T01:35:55;21.55;;;14.93;;
68765;SDS011;55756;45.582;11.484;2023-04-24T01:38:21;23.00;;;15.10;;
68765;SDS011;55756;45.582;11.484;2023-04-24T01:40:47;20.25;;;14.15;;
68765;SDS011;55756;45.582;11.484;2023-04-24T01:43:13;22.23;;;15.20;;
68765;SDS011;55756;45.582;11.484;2023-04-24T01:45:39;23.25;;;15.18;;
68765;SDS011;55756;45.582;11.484;2023-04-24T01:48:05;22.75;;;14.65;;
68765;SDS011;55756;45.582;11.484;2023-04-24T01:50:31;20.85;;;14.30;;
68765;SDS011;55756;45.582;11.484;2023-04-24T01:52:57;19.40;;;13.30;;
68765;SDS011;55756;45.582;11.484;2023-04-24T01:55:22;20.90;;;13.93;;
68765;SDS011;55756;45.582;11.484;2023-04-24T01:57:48;21.20;;;14.13;;
68765;SDS011;55756;45.582;11.484;2023-04-24T02:00:15;19.85;;;14.00;;
68765;SDS011;55756;45.582;11.484;2023-04-24T02:02:41;20.67;;;13.77;;
68765;SDS011;55756;45.582;11.484;2023-04-24T02:05:07;20.75;;;13.88;;
68765;SDS011;55756;45.582;11.484;2023-04-24T02:07:35;21.48;;;14.15;;
68765;SDS011;55756;45.582;11.484;2023-04-24T02:10:01;19.17;;;13.38;;
68765;SDS011;55756;45.582;11.484;2023-04-24T02:12:27;18.98;;;13.63;;
68765;SDS011;55756;45.582;11.484;2023-04-24T02:14:53;22.60;;;13.55;;
68765;SDS011;55756;45.582;11.484;2023-04-24T02:17:18;20.83;;;13.55;;
68765;SDS011;55756;45.582;11.484;2023-04-24T02:19:44;23.27;;;13.70;;
68765;SDS011;55756;45.582;11.484;2023-04-24T02:22:11;21.17;;;13.70;;
68765;SDS011;55756;45.582;11.484;2023-04-24T02:24:37;20.48;;;13.32;;
68765;SDS011;55756;45.582;11.484;2023-04-24T02:27:03;21.98;;;13.98;;
68765;SDS011;55756;45.582;11.484;2023-04-24T02:29:30;21.48;;;13.75;;
68765;SDS011;55756;45.582;11.484;2023-04-24T02:31:56;22.42;;;14.60;;
68765;SDS011;55756;45.582;11.484;2023-04-24T02:34:22;22.13;;;14.93;;
68765;SDS011;55756;45.582;11.484;2023-04-24T02:36:48;22.75;;;14.65;;
68765;SDS011;55756;45.582;11.484;2023-04-24T02:39:14;21.33;;;14.07;;
68765;SDS011;55756;45.582;11.484;2023-04-24T02:41:42;21.55;;;13.43;;
68765;SDS011;55756;45.582;11.484;2023-04-24T02:44:08;22.63;;;14.07;;
68765;SDS011;55756;45.582;11.484;2023-04-24T02:46:34;20.70;;;13.93;;
68765;SDS011;55756;45.582;11.484;2023-04-24T02:49:00;21.85;;;13.85;;
68765;SDS011;55756;45.582;11.484;2023-04-24T02:51:26;21.75;;;14.23;;
68765;SDS011;55756;45.582;11.484;2023-04-24T02:53:52;21.95;;;13.95;;
68765;SDS011;55756;45.582;11.484;2023-04-24T02:56:18;20.85;;;13.50;;
68765;SDS011;55756;45.582;11.484;2023-04-24T02:58:44;20.45;;;14.15;;
68765;SDS011;55756;45.582;11.484;2023-04-24T03:01:10;20.50;;;13.38;;
68765;SDS011;55756;45.582;11.484;2023-04-24T03:03:36;18.02;;;13.40;;
68765;SDS011;55756;45.582;11.484;2023-04-24T03:06:02;20.45;;;13.25;;
68765;SDS011;55756;45.582;11.484;2023-04-24T03:08:31;22.17;;;13.93;;
68765;SDS011;55756;45.582;11.484;2023-04-24T03:10:57;22.10;;;14.23;;
68765;SDS011;55756;45.582;11.484;2023-04-24T03:13:23;23.52;;;13.90;;
68765;SDS011;55756;45.582;11.484;2023-04-24T03:15:49;20.77;;;13.40;;
68765;SDS011;55756;45.582;11.484;2023-04-24T03:18:14;21.13;;;13.95;;
68765;SDS011;55756;45.582;11.484;2023-04-24T03:20:41;19.45;;;13.65;;
68765;SDS011;55756;45.582;11.484;2023-04-24T03:23:07;19.92;;;13.80;;
68765;SDS011;55756;45.582;11.484;2023-04-24T03:25:34;23.00;;;13.65;;
68765;SDS011;55756;45.582;11.484;2023-04-24T03:28:01;19.15;;;13.05;;
68765;SDS011;55756;45.582;11.484;2023-04-24T03:30:42;22.20;;;13.55;;
68765;SDS011;55756;45.582;11.484;2023-04-24T03:33:09;20.40;;;13.35;;
68765;SDS011;55756;45.582;11.484;2023-04-24T03:35:40;20.85;;;13.25;;
68765;SDS011;55756;45.582;11.484;2023-04-24T03:40:53;20.70;;;12.73;;
68765;SDS011;55756;45.582;11.484;2023-04-24T03:43:42;19.13;;;12.60;;
68765;SDS011;55756;45.582;11.484;2023-04-24T03:46:08;18.15;;;12.27;;
68765;SDS011;55756;45.582;11.484;2023-04-24T03:48:38;16.92;;;11.82;;
68765;SDS011;55756;45.582;11.484;2023-04-24T03:51:06;17.10;;;11.82;;
68765;SDS011;55756;45.582;11.484;2023-04-24T03:53:36;19.30;;;12.15;;
68765;SDS011;55756;45.582;11.484;2023-04-24T03:56:03;25.17;;;17.50;;
68765;SDS011;55756;45.582;11.484;2023-04-24T03:58:30;40.10;;;28.63;;
68765;SDS011;55756;45.582;11.484;2023-04-24T04:00:56;61.60;;;43.50;;
68765;SDS011;55756;45.582;11.484;2023-04-24T04:03:44;86.43;;;63.13;;
68765;SDS011;55756;45.582;11.484;2023-04-24T04:06:10;59.55;;;45.88;;
68765;SDS011;55756;45.582;11.484;2023-04-24T04:08:37;48.50;;;37.20;;
68765;SDS011;55756;45.582;11.484;2023-04-24T04:11:03;39.92;;;29.05;;
68765;SDS011;55756;45.582;11.484;2023-04-24T04:13:29;29.75;;;22.38;;
68765;SDS011;55756;45.582;11.484;2023-04-24T04:15:55;28.67;;;20.55;;
68765;SDS011;55756;45.582;11.484;2023-04-24T04:18:21;22.90;;;17.55;;
68765;SDS011;55756;45.582;11.484;2023-04-24T04:20:47;24.08;;;16.48;;
68765;SDS011;55756;45.582;11.484;2023-04-24T04:23:14;21.60;;;15.07;;
68765;SDS011;55756;45.582;11.484;2023-04-24T04:25:58;20.67;;;14.80;;
68765;SDS011;55756;45.582;11.484;2023-04-24T04:28:34;23.98;;;14.90;;
68765;SDS011;55756;45.582;11.484;2023-04-24T04:31:00;22.85;;;14.65;;
68765;SDS011;55756;45.582;11.484;2023-04-24T04:33:26;20.63;;;13.52;;
68765;SDS011;55756;45.582;11.484;2023-04-24T04:35:52;20.73;;;13.10;;
68765;SDS011;55756;45.582;11.484;2023-04-24T04:38:20;19.75;;;13.13;;
68765;SDS011;55756;45.582;11.484;2023-04-24T04:40:52;18.38;;;12.80;;
68765;SDS011;55756;45.582;11.484;2023-04-24T04:43:20;20.90;;;12.20;;
68765;SDS011;55756;45.582;11.484;2023-04-24T04:45:51;17.10;;;12.20;;
68765;SDS011;55756;45.582;11.484;2023-04-24T04:48:53;20.13;;;13.82;;
68765;SDS011;55756;45.582;11.484;2023-04-24T04:51:19;19.63;;;14.10;;
68765;SDS011;55756;45.582;11.484;2023-04-24T04:53:45;20.08;;;13.73;;
68765;SDS011;55756;45.582;11.484;2023-04-24T04:56:11;22.08;;;14.45;;
68765;SDS011;55756;45.582;11.484;2023-04-24T04:58:44;20.33;;;13.50;;
68765;SDS011;55756;45.582;11.484;2023-04-24T05:01:13;20.35;;;13.65;;
68765;SDS011;55756;45.582;11.484;2023-04-24T05:03:41;18.77;;;13.90;;
68765;SDS011;55756;45.582;11.484;2023-04-24T05:06:11;19.90;;;13.80;;
68765;SDS011;55756;45.582;11.484;2023-04-24T05:08:38;19.27;;;13.52;;
68765;SDS011;55756;45.582;11.484;2023-04-24T05:11:08;18.92;;;13.02;;
68765;SDS011;55756;45.582;11.484;2023-04-24T05:13:35;18.30;;;12.50;;
68765;SDS011;55756;45.582;11.484;2023-04-24T05:16:02;18.40;;;12.48;;
68765;SDS011;55756;45.582;11.484;2023-04-24T05:18:29;18.55;;;12.52;;
68765;SDS011;55756;45.582;11.484;2023-04-24T05:20:56;18.20;;;12.95;;
68765;SDS011;55756;45.582;11.484;2023-04-24T05:23:23;16.60;;;12.05;;
68765;SDS011;55756;45.582;11.484;2023-04-24T05:25:51;17.80;;;12.40;;
68765;SDS011;55756;45.582;11.484;2023-04-24T05:28:18;16.67;;;12.02;;
68765;SDS011;55756;45.582;11.484;2023-04-24T05:30:52;20.55;;;12.05;;
68765;SDS011;55756;45.582;11.484;2023-04-24T05:33:20;14.77;;;9.70;;
68765;SDS011;55756;45.582;11.484;2023-04-24T05:35:45;15.50;;;9.95;;
68765;SDS011;55756;45.582;11.484;2023-04-24T05:38:12;16.00;;;10.95;;
68765;SDS011;55756;45.582;11.484;2023-04-24T05:40:38;14.80;;;9.65;;
68765;SDS011;55756;45.582;11.484;2023-04-24T05:43:04;15.40;;;9.23;;
68765;SDS011;55756;45.582;11.484;2023-04-24T05:45:30;14.55;;;8.60;;
68765;SDS011;55756;45.582;11.484;2023-04-24T05:47:56;11.90;;;8.02;;
68765;SDS011;55756;45.582;11.484;2023-04-24T05:50:22;13.13;;;7.80;;
68765;SDS011;55756;45.582;11.484;2023-04-24T05:52:48;11.90;;;8.45;;
68765;SDS011;55756;45.582;11.484;2023-04-24T05:55:24;12.65;;;8.10;;
68765;SDS011;55756;45.582;11.484;2023-04-24T05:57:51;10.65;;;7.30;;
68765;SDS011;55756;45.582;11.484;2023-04-24T06:00:18;11.00;;;7.53;;
68765;SDS011;55756;45.582;11.484;2023-04-24T06:02:51;12.48;;;7.20;;
68765;SDS011;55756;45.582;11.484;2023-04-24T06:05:19;11.00;;;7.05;;
68765;SDS011;55756;45.582;11.484;2023-04-24T06:07:45;10.60;;;6.90;;
68765;SDS011;55756;45.582;11.484;2023-04-24T06:10:11;10.45;;;6.63;;
68765;SDS011;55756;45.582;11.484;2023-04-24T06:12:40;10.00;;;6.35;;
68765;SDS011;55756;45.582;11.484;2023-04-24T06:15:12;10.77;;;6.38;;
68765;SDS011;55756;45.582;11.484;2023-04-24T06:17:51;10.57;;;7.07;;
68765;SDS011;55756;45.582;11.484;2023-04-24T06:20:17;11.77;;;7.53;;
68765;SDS011;55756;45.582;11.484;2023-04-24T06:22:43;10.80;;;6.88;;
68765;SDS011;55756;45.582;11.484;2023-04-24T06:25:09;11.63;;;6.90;;
68765;SDS011;55756;45.582;11.484;2023-04-24T06:27:35;12.43;;;6.85;;
68765;SDS011;55756;45.582;11.484;2023-04-24T06:30:01;11.27;;;6.50;;
68765;SDS011;55756;45.582;11.484;2023-04-24T06:32:27;10.70;;;6.20;;
68765;SDS011;55756;45.582;11.484;2023-04-24T06:34:53;12.50;;;6.85;;
68765;SDS011;55756;45.582;11.484;2023-04-24T06:37:22;10.85;;;6.53;;
68765;SDS011;55756;45.582;11.484;2023-04-24T06:39:48;11.98;;;7.00;;
68765;SDS011;55756;45.582;11.484;2023-04-24T06:42:14;11.68;;;6.13;;
68765;SDS011;55756;45.582;11.484;2023-04-24T06:44:42;9.30;;;5.10;;
68765;SDS011;55756;45.582;11.484;2023-04-24T06:47:09;10.13;;;4.03;;
68765;SDS011;55756;45.582;11.484;2023-04-24T06:49:36;7.60;;;2.50;;
68765;SDS011;55756;45.582;11.484;2023-04-24T06:52:02;4.82;;;2.10;;
68765;SDS011;55756;45.582;11.484;2023-04-24T06:54:28;3.40;;;1.30;;
68765;SDS011;55756;45.582;11.484;2023-04-24T06:56:54;2.83;;;1.10;;
68765;SDS011;55756;45.582;11.484;2023-04-24T06:59:20;3.30;;;0.90;;
68765;SDS011;55756;45.582;11.484;2023-04-24T07:01:46;1.48;;;0.70;;
68765;SDS011;55756;45.582;11.484;2023-04-24T07:04:12;1.85;;;0.70;;
68765;SDS011;55756;45.582;11.484;2023-04-24T07:06:38;0.68;;;0.60;;
68765;SDS011;55756;45.582;11.484;2023-04-24T07:09:04;2.50;;;0.63;;
68765;SDS011;55756;45.582;11.484;2023-04-24T07:11:30;2.92;;;0.50;;
68765;SDS011;55756;45.582;11.484;2023-04-24T07:13:56;1.05;;;0.60;;
68765;SDS011;55756;45.582;11.484;2023-04-24T07:16:22;2.47;;;0.60;;
68765;SDS011;55756;45.582;11.484;2023-04-24T07:18:48;0.68;;;0.55;;
68765;SDS011;55756;45.582;11.484;2023-04-24T07:21:15;0.82;;;0.65;;
68765;SDS011;55756;45.582;11.484;2023-04-24T07:23:41;2.75;;;0.60;;
68765;SDS011;55756;45.582;11.484;2023-04-24T07:26:07;0.90;;;0.80;;
68765;SDS011;55756;45.582;11.484;2023-04-24T07:28:33;0.50;;;0.50;;
68765;SDS011;55756;45.582;11.484;2023-04-24T07:30:59;3.03;;;0.70;;
68765;SDS011;55756;45.582;11.484;2023-04-24T07:33:25;0.65;;;0.50;;
68765;SDS011;55756;45.582;11.484;2023-04-24T07:35:51;3.40;;;0.60;;
68765;SDS011;55756;45.582;11.484;2023-04-24T07:38:17;1.65;;;0.40;;
68765;SDS011;55756;45.582;11.484;2023-04-24T07:40:46;1.70;;;0.50;;
68765;SDS011;55756;45.582;11.484;2023-04-24T07:43:12;0.95;;;0.57;;
68765;SDS011;55756;45.582;11.484;2023-04-24T07:45:41;0.50;;;0.50;;
68765;SDS011;55756;45.582;11.484;2023-04-24T07:48:06;2.38;;;1.10;;
68765;SDS011;55756;45.582;11.484;2023-04-24T07:50:34;1.98;;;0.93;;
68765;SDS011;55756;45.582;11.484;2023-04-24T07:53:01;2.50;;;1.10;;
68765;SDS011;55756;45.582;11.484;2023-04-24T07:55:27;4.75;;;1.50;;
68765;SDS011;55756;45.582;11.484;2023-04-24T07:57:52;3.83;;;1.60;;
68765;SDS011;55756;45.582;11.484;2023-04-24T08:00:18;2.33;;;1.20;;
68765;SDS011;55756;45.582;11.484;2023-04-24T08:02:44;3.00;;;1.30;;
68765;SDS011;55756;45.582;11.484;2023-04-24T08:05:10;2.40;;;1.10;;
68765;SDS011;55756;45.582;11.484;2023-04-24T08:07:36;1.88;;;1.08;;
68765;SDS011;55756;45.582;11.484;2023-04-24T08:10:03;1.67;;;1.00;;
68765;SDS011;55756;45.582;11.484;2023-04-24T08:12:29;1.50;;;0.90;;
68765;SDS011;55756;45.582;11.484;2023-04-24T08:14:55;1.58;;;0.90;;
68765;SDS011;55756;45.582;11.484;2023-04-24T08:17:20;3.05;;;0.90;;
68765;SDS011;55756;45.582;11.484;2023-04-24T08:19:46;1.42;;;0.93;;
68765;SDS011;55756;45.582;11.484;2023-04-24T08:22:16;3.38;;;0.95;;
68765;SDS011;55756;45.582;11.484;2023-04-24T08:24:42;3.00;;;0.95;;
68765;SDS011;55756;45.582;11.484;2023-04-24T08:27:09;4.43;;;1.00;;
68765;SDS011;55756;45.582;11.484;2023-04-24T08:29:35;2.15;;;1.00;;
68765;SDS011;55756;45.582;11.484;2023-04-24T08:32:01;3.85;;;1.10;;
68765;SDS011;55756;45.582;11.484;2023-04-24T08:34:27;3.60;;;1.10;;
68765;SDS011;55756;45.582;11.484;2023-04-24T08:36:53;4.55;;;1.00;;
68765;SDS011;55756;45.582;11.484;2023-04-24T08:39:19;2.28;;;1.10;;
68765;SDS011;55756;45.582;11.484;2023-04-24T08:41:45;2.50;;;1.10;;
68765;SDS011;55756;45.582;11.484;2023-04-24T08:44:14;4.60;;;1.20;;
68765;SDS011;55756;45.582;11.484;2023-04-24T08:46:42;4.25;;;1.30;;
68765;SDS011;55756;45.582;11.484;2023-04-24T08:49:11;5.80;;;1.30;;
68765;SDS011;55756;45.582;11.484;2023-04-24T08:51:38;2.40;;;1.20;;
68765;SDS011;55756;45.582;11.484;2023-04-24T08:54:04;4.07;;;0.98;;
68765;SDS011;55756;45.582;11.484;2023-04-24T08:56:32;2.50;;;1.10;;
68765;SDS011;55756;45.582;11.484;2023-04-24T08:59:03;2.25;;;0.90;;
68765;SDS011;55756;45.582;11.484;2023-04-24T09:01:29;3.08;;;0.88;;
68765;SDS011;55756;45.582;11.484;2023-04-24T09:03:58;4.68;;;2.67;;
68765;SDS011;55756;45.582;11.484;2023-04-24T09:06:29;44.05;;;32.53;;
68765;SDS011;55756;45.582;11.484;2023-04-24T09:08:58;11.60;;;6.35;;
68765;SDS011;55756;45.582;11.484;2023-04-24T09:11:26;8.60;;;4.97;;
68765;SDS011;55756;45.582;11.484;2023-04-24T09:13:53;6.30;;;3.13;;
68765;SDS011;55756;45.582;11.484;2023-04-24T09:16:20;5.80;;;2.58;;
68765;SDS011;55756;45.582;11.484;2023-04-24T09:18:46;7.30;;;2.83;;
68765;SDS011;55756;45.582;11.484;2023-04-24T09:21:11;7.70;;;2.75;;
68765;SDS011;55756;45.582;11.484;2023-04-24T09:23:37;5.53;;;2.65;;
68765;SDS011;55756;45.582;11.484;2023-04-24T09:26:13;6.57;;;2.85;;
68765;SDS011;55756;45.582;11.484;2023-04-24T09:28:49;6.72;;;3.10;;
68765;SDS011;55756;45.582;11.484;2023-04-24T09:31:17;6.30;;;3.00;;
68765;SDS011;55756;45.582;11.484;2023-04-24T09:33:57;7.93;;;3.38;;
68765;SDS011;55756;45.582;11.484;2023-04-24T09:36:28;7.40;;;3.70;;
68765;SDS011;55756;45.582;11.484;2023-04-24T09:39:01;9.80;;;4.82;;
68765;SDS011;55756;45.582;11.484;2023-04-24T09:41:27;29.95;;;21.58;;
68765;SDS011;55756;45.582;11.484;2023-04-24T09:46:29;37.50;;;27.25;;
68765;SDS011;55756;45.582;11.484;2023-04-24T09:49:10;19.00;;;13.70;;
68765;SDS011;55756;45.582;11.484;2023-04-24T09:51:43;13.45;;;9.25;;
68765;SDS011;55756;45.582;11.484;2023-04-24T09:54:15;11.50;;;7.30;;
68765;SDS011;55756;45.582;11.484;2023-04-24T09:56:43;10.35;;;6.65;;
68765;SDS011;55756;45.582;11.484;2023-04-24T09:59:10;10.15;;;5.93;;
68765;SDS011;55756;45.582;11.484;2023-04-24T10:01:36;9.55;;;5.60;;
68765;SDS011;55756;45.582;11.484;2023-04-24T10:04:03;11.20;;;5.70;;
68765;SDS011;55756;45.582;11.484;2023-04-24T10:06:30;8.60;;;5.50;;
68765;SDS011;55756;45.582;11.484;2023-04-24T10:08:58;8.25;;;4.97;;
68765;SDS011;55756;45.582;11.484;2023-04-24T10:11:26;10.82;;;5.50;;
68765;SDS011;55756;45.582;11.484;2023-04-24T10:13:52;9.10;;;5.45;;
68765;SDS011;55756;45.582;11.484;2023-04-24T10:16:19;9.15;;;5.32;;
68765;SDS011;55756;45.582;11.484;2023-04-24T10:18:47;9.10;;;4.85;;
68765;SDS011;55756;45.582;11.484;2023-04-24T10:21:14;7.43;;;3.63;;
68765;SDS011;55756;45.582;11.484;2023-04-24T10:23:41;20.42;;;12.90;;
68765;SDS011;55756;45.582;11.484;2023-04-24T10:26:10;24.80;;;17.15;;
68765;SDS011;55756;45.582;11.484;2023-04-24T10:28:43;24.30;;;15.50;;
68765;SDS011;55756;45.582;11.484;2023-04-24T10:31:10;16.73;;;10.13;;
68765;SDS011;55756;45.582;11.484;2023-04-24T10:33:38;12.98;;;8.27;;
68765;SDS011;55756;45.582;11.484;2023-04-24T10:36:10;14.63;;;7.20;;
68765;SDS011;55756;45.582;11.484;2023-04-24T10:38:39;11.07;;;6.57;;
68765;SDS011;55756;45.582;11.484;2023-04-24T10:41:08;9.68;;;5.78;;
68765;SDS011;55756;45.582;11.484;2023-04-24T10:43:40;9.40;;;5.47;;
68765;SDS011;55756;45.582;11.484;2023-04-24T10:46:21;8.73;;;5.10;;
68765;SDS011;55756;45.582;11.484;2023-04-24T10:48:53;9.80;;;4.43;;
68765;SDS011;55756;45.582;11.484;2023-04-24T10:51:21;7.80;;;4.22;;
68765;SDS011;55756;45.582;11.484;2023-04-24T10:53:51;8.25;;;4.75;;
68765;SDS011;55756;45.582;11.484;2023-04-24T10:58:44;7.30;;;4.40;;
68765;SDS011;55756;45.582;11.484;2023-04-24T11:03:54;8.63;;;4.13;;
68765;SDS011;55756;45.582;11.484;2023-04-24T11:06:35;8.55;;;3.88;;
68765;SDS011;55756;45.582;11.484;2023-04-24T11:09:05;10.30;;;5.05;;
68765;SDS011;55756;45.582;11.484;2023-04-24T11:11:37;9.15;;;5.10;;
68765;SDS011;55756;45.582;11.484;2023-04-24T11:14:10;11.68;;;4.90;;
68765;SDS011;55756;45.582;11.484;2023-04-24T11:21:48;8.88;;;5.32;;
68765;SDS011;55756;45.582;11.484;2023-04-24T11:27:25;9.68;;;5.50;;
68765;SDS011;55756;45.582;11.484;2023-04-24T11:32:29;9.75;;;5.78;;
68765;SDS011;55756;45.582;11.484;2023-04-24T11:37:33;8.98;;;4.70;;
68765;SDS011;55756;45.582;11.484;2023-04-24T11:40:10;8.75;;;5.03;;
68765;SDS011;55756;45.582;11.484;2023-04-24T11:42:41;8.77;;;5.28;;
68765;SDS011;55756;45.582;11.484;2023-04-24T11:45:18;8.57;;;4.82;;
68765;SDS011;55756;45.582;11.484;2023-04-24T11:47:48;10.40;;;4.90;;
68765;SDS011;55756;45.582;11.484;2023-04-24T11:50:15;10.82;;;5.40;;
68765;SDS011;55756;45.582;11.484;2023-04-24T11:52:43;8.57;;;4.53;;
68765;SDS011;55756;45.582;11.484;2023-04-24T11:57:39;8.80;;;5.10;;
68765;SDS011;55756;45.582;11.484;2023-04-24T12:00:14;8.95;;;5.25;;
68765;SDS011;55756;45.582;11.484;2023-04-24T12:02:47;8.27;;;5.17;;
68765;SDS011;55756;45.582;11.484;2023-04-24T12:05:24;9.55;;;5.55;;
68765;SDS011;55756;45.582;11.484;2023-04-24T12:07:52;8.40;;;4.90;;
68765;SDS011;55756;45.582;11.484;2023-04-24T12:10:25;9.80;;;4.20;;
68765;SDS011;55756;45.582;11.484;2023-04-24T12:12:53;7.72;;;4.00;;
68765;SDS011;55756;45.582;11.484;2023-04-24T12:15:20;7.38;;;3.72;;
68765;SDS011;55756;45.582;11.484;2023-04-24T12:17:46;6.30;;;3.40;;
68765;SDS011;55756;45.582;11.484;2023-04-24T12:20:12;6.72;;;3.50;;
68765;SDS011;55756;45.582;11.484;2023-04-24T12:25:21;5.85;;;3.05;;
68765;SDS011;55756;45.582;11.484;2023-04-24T12:28:08;6.35;;;2.90;;
68765;SDS011;55756;45.582;11.484;2023-04-24T12:30:42;5.63;;;2.80;;
68765;SDS011;55756;45.582;11.484;2023-04-24T12:33:17;6.90;;;3.10;;
68765;SDS011;55756;45.582;11.484;2023-04-24T12:35:44;6.18;;;2.90;;
68765;SDS011;55756;45.582;11.484;2023-04-24T12:38:15;6.28;;;2.92;;
68765;SDS011;55756;45.582;11.484;2023-04-24T12:40:43;5.82;;;2.85;;
68765;SDS011;55756;45.582;11.484;2023-04-24T12:43:16;5.32;;;2.83;;
68765;SDS011;55756;45.582;11.484;2023-04-24T12:45:43;5.00;;;2.50;;
68765;SDS011;55756;45.582;11.484;2023-04-24T12:48:10;6.75;;;2.63;;
68765;SDS011;55756;45.582;11.484;2023-04-24T12:50:36;5.95;;;2.60;;
68765;SDS011;55756;45.582;11.484;2023-04-24T12:53:03;5.18;;;2.63;;
68765;SDS011;55756;45.582;11.484;2023-04-24T12:55:28;5.47;;;2.40;;
68765;SDS011;55756;45.582;11.484;2023-04-24T12:57:54;6.70;;;3.22;;
68765;SDS011;55756;45.582;11.484;2023-04-24T13:00:21;7.13;;;3.05;;
68765;SDS011;55756;45.582;11.484;2023-04-24T13:02:50;6.70;;;2.65;;
68765;SDS011;55756;45.582;11.484;2023-04-24T13:05:16;4.38;;;2.17;;
68765;SDS011;55756;45.582;11.484;2023-04-24T13:07:42;5.40;;;2.20;;
68765;SDS011;55756;45.582;11.484;2023-04-24T13:10:08;4.93;;;2.00;;
68765;SDS011;55756;45.582;11.484;2023-04-24T13:12:34;4.55;;;2.10;;
68765;SDS011;55756;45.582;11.484;2023-04-24T13:15:00;7.03;;;2.30;;
68765;SDS011;55756;45.582;11.484;2023-04-24T13:17:26;5.25;;;2.08;;
68765;SDS011;55756;45.582;11.484;2023-04-24T13:19:54;5.00;;;2.00;;
68765;SDS011;55756;45.582;11.484;2023-04-24T13:22:20;5.53;;;1.88;;
68765;SDS011;55756;45.582;11.484;2023-04-24T13:24:46;4.60;;;1.85;;
68765;SDS011;55756;45.582;11.484;2023-04-24T13:30:05;4.97;;;2.10;;
68765;SDS011;55756;45.582;11.484;2023-04-24T13:32:32;3.67;;;2.10;;
68765;SDS011;55756;45.582;11.484;2023-04-24T13:34:58;6.45;;;2.20;;
68765;SDS011;55756;45.582;11.484;2023-04-24T13:37:24;5.25;;;2.00;;
68765;SDS011;55756;45.582;11.484;2023-04-24T13:39:50;6.22;;;2.05;;
68765;SDS011;55756;45.582;11.484;2023-04-24T13:42:17;4.57;;;2.00;;
68765;SDS011;55756;45.582;11.484;2023-04-24T13:44:45;3.30;;;1.80;;
68765;SDS011;55756;45.582;11.484;2023-04-24T13:47:10;4.68;;;1.80;;
68765;SDS011;55756;45.582;11.484;2023-04-24T13:49:36;4.68;;;1.90;;
68765;SDS011;55756;45.582;11.484;2023-04-24T13:52:03;4.85;;;2.00;;
68765;SDS011;55756;45.582;11.484;2023-04-24T13:54:29;4.35;;;1.88;;
68765;SDS011;55756;45.582;11.484;2023-04-24T13:56:57;6.43;;;2.13;;
68765;SDS011;55756;45.582;11.484;2023-04-24T13:59:23;5.97;;;2.50;;
68765;SDS011;55756;45.582;11.484;2023-04-24T14:01:50;5.13;;;2.33;;
68765;SDS011;55756;45.582;11.484;2023-04-24T14:04:15;7.55;;;2.50;;
68765;SDS011;55756;45.582;11.484;2023-04-24T14:06:41;6.25;;;2.33;;
68765;SDS011;55756;45.582;11.484;2023-04-24T14:09:08;5.35;;;2.25;;
68765;SDS011;55756;45.582;11.484;2023-04-24T14:11:33;5.40;;;2.20;;
68765;SDS011;55756;45.582;11.484;2023-04-24T14:14:00;5.35;;;2.13;;
68765;SDS011;55756;45.582;11.484;2023-04-24T14:16:26;4.53;;;2.10;;
68765;SDS011;55756;45.582;11.484;2023-04-24T14:18:53;6.20;;;2.20;;
68765;SDS011;55756;45.582;11.484;2023-04-24T14:21:18;9.38;;;2.10;;
68765;SDS011;55756;45.582;11.484;2023-04-24T14:23:44;4.40;;;2.10;;
68765;SDS011;55756;45.582;11.484;2023-04-24T14:26:10;5.13;;;2.10;;
68765;SDS011;55756;45.582;11.484;2023-04-24T14:28:36;4.47;;;2.10;;
68765;SDS011;55756;45.582;11.484;2023-04-24T14:31:02;4.53;;;2.30;;
68765;SDS011;55756;45.582;11.484;2023-04-24T14:33:28;6.80;;;2.60;;
68765;SDS011;55756;45.582;11.484;2023-04-24T14:35:53;6.65;;;2.80;;
68765;SDS011;55756;45.582;11.484;2023-04-24T14:38:19;6.72;;;2.90;;
68765;SDS011;55756;45.582;11.484;2023-04-24T14:40:45;6.03;;;2.90;;
68765;SDS011;55756;45.582;11.484;2023-04-24T14:43:11;5.85;;;2.60;;
68765;SDS011;55756;45.582;11.484;2023-04-24T14:45:37;5.53;;;2.63;;
68765;SDS011;55756;45.582;11.484;2023-04-24T14:48:05;6.53;;;2.88;;
68765;SDS011;55756;45.582;11.484;2023-04-24T14:50:30;5.80;;;2.67;;
68765;SDS011;55756;45.582;11.484;2023-04-24T14:52:56;6.15;;;2.70;;
68765;SDS011;55756;45.582;11.484;2023-04-24T14:55:24;5.93;;;2.60;;
68765;SDS011;55756;45.582;11.484;2023-04-24T14:57:51;6.03;;;2.80;;
68765;SDS011;55756;45.582;11.484;2023-04-24T15:00:18;5.47;;;2.80;;